Pilger, NE (68768)

09:36 AM CST del 03 Dicembre 2016 (GMT -0600)
1 mile South of Wayne | | Change Station

Alt. 1463 ft 42.22 °N, 97.01 °W | Updated 1 second ago

Overcast
Coperto
30.6 °F
Sembra 26 °F
N
4.5
Vento Variabile Vento da SE
Gusts 4.9 mph

Oggi
Massima -- | Minima -- °F
--% Possibilità di precip.
Ieri
Massima -- | Minima -- °F
Precip. -- in
Pressione 30.22 in
Visibilità 7.0 miglia
Nuvole Coperto 10000 ft
Raffreddamento del vento 26 °F
Punto di rugiada 12 °F
Umidità 46%
Piovosità 0.00 in
Spessore del manto nevoso Non disponibile.
7:39 AM 4:57 PM
Luna crescente, 15% visible
METAR KLCG 031515Z AUTO 18008KT 7SM OVC100 M02/M03 A3022 RMK AO2 T10181026
Pressione 30.22 in
Visibilità 7.0 miglia
Nuvole Coperto 10000 ft
Raffreddamento del vento 26 °F
Punto di rugiada 12 °F
Umidità 46%
Piovosità 0.00 in
Spessore del manto nevoso Non disponibile.
7:39 AM 4:57 PM
Luna crescente, 15% visible
METAR KLCG 031515Z AUTO 18008KT 7SM OVC100 M02/M03 A3022 RMK AO2 T10181026

10-Day Weather Forecast

Almanac

Astronomia

Dec. 03, 2016 Alba Tramonto
Ora attuale
Crepuscolo civile
Crepuscolo nautico
Crepuscolo astronomico
Luna
Estensione della luce visibile
Lunghezza del giorno
Tomorrow will be .
, % of the Moon is Illuminated

Gli estremi di oggi

State Highs State Lows

Community

WunderPhotos

Upload Photos

1,955,425 foto caricate!

WunderBlog® & News

Nearby

Qualità dell'aria

  Qualità dell'aria Indice AQ Inquinante
Not available.

Profondità neve

Stazione Profondità Altitudine

Attività sismica

Città  Distanza Mag. Data & Ora
Minimo Magnitudo Mostrato è 2.5.

Temperature delle acque costiere

Località Temperatura

Stations

Stazioni meteo nelle vicinanze

Ubicazione della stazione Temp. Raffreddamento del vento Punto di rugiada Umidità Vento Precip. Alt. Aggiornato Tipo
                   

Watches & Warnings

There are currently no watches in effect.